sensor_id;sensor_type;location;lat;lon;timestamp;P1;durP1;ratioP1;P2;durP2;ratioP2
81336;SDS011;70799;48.000;10.584;2023-07-28T00:01:59;3.63;;;2.03;;
81336;SDS011;70799;48.000;10.584;2023-07-28T00:04:34;3.65;;;1.73;;
81336;SDS011;70799;48.000;10.584;2023-07-28T00:07:08;4.13;;;1.85;;
81336;SDS011;70799;48.000;10.584;2023-07-28T00:09:41;3.33;;;1.67;;
81336;SDS011;70799;48.000;10.584;2023-07-28T00:12:14;3.70;;;1.63;;
81336;SDS011;70799;48.000;10.584;2023-07-28T00:14:47;2.88;;;1.50;;
81336;SDS011;70799;48.000;10.584;2023-07-28T00:17:20;3.72;;;1.63;;
81336;SDS011;70799;48.000;10.584;2023-07-28T00:19:54;2.85;;;1.50;;
81336;SDS011;70799;48.000;10.584;2023-07-28T00:22:28;4.13;;;1.80;;
81336;SDS011;70799;48.000;10.584;2023-07-28T00:25:01;4.70;;;1.60;;
81336;SDS011;70799;48.000;10.584;2023-07-28T00:27:35;4.70;;;1.60;;
81336;SDS011;70799;48.000;10.584;2023-07-28T00:30:09;4.57;;;1.92;;
81336;SDS011;70799;48.000;10.584;2023-07-28T00:32:43;3.53;;;1.73;;
81336;SDS011;70799;48.000;10.584;2023-07-28T00:35:20;3.85;;;2.00;;
81336;SDS011;70799;48.000;10.584;2023-07-28T00:37:54;4.47;;;1.75;;
81336;SDS011;70799;48.000;10.584;2023-07-28T00:40:27;3.83;;;1.75;;
81336;SDS011;70799;48.000;10.584;2023-07-28T00:43:04;2.80;;;1.52;;
81336;SDS011;70799;48.000;10.584;2023-07-28T00:45:37;5.10;;;1.92;;
81336;SDS011;70799;48.000;10.584;2023-07-28T00:48:12;3.97;;;1.90;;
81336;SDS011;70799;48.000;10.584;2023-07-28T00:50:47;3.05;;;1.60;;
81336;SDS011;70799;48.000;10.584;2023-07-28T00:53:22;5.30;;;1.98;;
81336;SDS011;70799;48.000;10.584;2023-07-28T00:55:57;3.92;;;1.85;;
81336;SDS011;70799;48.000;10.584;2023-07-28T00:58:32;4.88;;;2.05;;
81336;SDS011;70799;48.000;10.584;2023-07-28T01:01:05;3.97;;;1.92;;
81336;SDS011;70799;48.000;10.584;2023-07-28T01:03:38;4.32;;;1.75;;
81336;SDS011;70799;48.000;10.584;2023-07-28T01:06:18;3.20;;;1.58;;
81336;SDS011;70799;48.000;10.584;2023-07-28T01:09:09;3.95;;;2.13;;
81336;SDS011;70799;48.000;10.584;2023-07-28T01:11:58;4.15;;;2.10;;
81336;SDS011;70799;48.000;10.584;2023-07-28T01:14:34;3.22;;;2.00;;
81336;SDS011;70799;48.000;10.584;2023-07-28T01:17:09;5.70;;;2.22;;
81336;SDS011;70799;48.000;10.584;2023-07-28T01:19:43;3.20;;;1.83;;
81336;SDS011;70799;48.000;10.584;2023-07-28T01:27:35;4.38;;;1.80;;
81336;SDS011;70799;48.000;10.584;2023-07-28T01:30:13;2.63;;;1.50;;
81336;SDS011;70799;48.000;10.584;2023-07-28T01:32:47;3.90;;;1.73;;
81336;SDS011;70799;48.000;10.584;2023-07-28T01:35:20;4.88;;;2.28;;
81336;SDS011;70799;48.000;10.584;2023-07-28T01:37:54;4.95;;;1.95;;
81336;SDS011;70799;48.000;10.584;2023-07-28T01:40:27;3.95;;;1.95;;
81336;SDS011;70799;48.000;10.584;2023-07-28T01:43:00;3.55;;;1.83;;
81336;SDS011;70799;48.000;10.584;2023-07-28T01:45:34;3.92;;;2.05;;
81336;SDS011;70799;48.000;10.584;2023-07-28T01:48:08;3.88;;;2.20;;
81336;SDS011;70799;48.000;10.584;2023-07-28T01:50:41;3.83;;;2.42;;
81336;SDS011;70799;48.000;10.584;2023-07-28T01:53:14;4.05;;;2.25;;
81336;SDS011;70799;48.000;10.584;2023-07-28T01:55:47;3.95;;;2.47;;
81336;SDS011;70799;48.000;10.584;2023-07-28T01:58:20;4.75;;;2.03;;
81336;SDS011;70799;48.000;10.584;2023-07-28T02:00:53;5.43;;;2.70;;
81336;SDS011;70799;48.000;10.584;2023-07-28T02:03:26;5.30;;;2.60;;
81336;SDS011;70799;48.000;10.584;2023-07-28T02:06:00;5.13;;;2.30;;
81336;SDS011;70799;48.000;10.584;2023-07-28T02:08:34;4.18;;;2.20;;
81336;SDS011;70799;48.000;10.584;2023-07-28T02:11:07;3.67;;;1.98;;
81336;SDS011;70799;48.000;10.584;2023-07-28T02:13:40;5.03;;;2.80;;
81336;SDS011;70799;48.000;10.584;2023-07-28T02:16:18;3.80;;;2.20;;
81336;SDS011;70799;48.000;10.584;2023-07-28T02:18:51;4.05;;;2.15;;
81336;SDS011;70799;48.000;10.584;2023-07-28T02:21:24;5.57;;;2.53;;
81336;SDS011;70799;48.000;10.584;2023-07-28T02:23:59;3.60;;;2.05;;
81336;SDS011;70799;48.000;10.584;2023-07-28T02:26:32;4.35;;;2.00;;
81336;SDS011;70799;48.000;10.584;2023-07-28T02:29:06;3.90;;;2.22;;
81336;SDS011;70799;48.000;10.584;2023-07-28T02:31:39;5.57;;;2.20;;
81336;SDS011;70799;48.000;10.584;2023-07-28T02:34:12;6.47;;;2.22;;
81336;SDS011;70799;48.000;10.584;2023-07-28T02:36:45;3.55;;;1.95;;
81336;SDS011;70799;48.000;10.584;2023-07-28T02:39:19;3.40;;;2.03;;
81336;SDS011;70799;48.000;10.584;2023-07-28T02:41:52;3.83;;;2.10;;
81336;SDS011;70799;48.000;10.584;2023-07-28T02:44:25;3.90;;;2.00;;
81336;SDS011;70799;48.000;10.584;2023-07-28T02:46:58;3.25;;;1.88;;
81336;SDS011;70799;48.000;10.584;2023-07-28T02:49:32;5.25;;;2.08;;
81336;SDS011;70799;48.000;10.584;2023-07-28T02:52:05;4.63;;;2.30;;
81336;SDS011;70799;48.000;10.584;2023-07-28T02:54:39;5.25;;;2.03;;
81336;SDS011;70799;48.000;10.584;2023-07-28T02:57:12;4.50;;;2.35;;
81336;SDS011;70799;48.000;10.584;2023-07-28T02:59:47;4.95;;;2.20;;
81336;SDS011;70799;48.000;10.584;2023-07-28T03:02:21;3.53;;;1.90;;
81336;SDS011;70799;48.000;10.584;2023-07-28T03:04:57;3.88;;;1.85;;
81336;SDS011;70799;48.000;10.584;2023-07-28T03:08:04;4.97;;;1.95;;
81336;SDS011;70799;48.000;10.584;2023-07-28T03:10:38;3.90;;;1.85;;
81336;SDS011;70799;48.000;10.584;2023-07-28T03:13:11;3.78;;;2.20;;
81336;SDS011;70799;48.000;10.584;2023-07-28T03:15:44;4.60;;;2.08;;
81336;SDS011;70799;48.000;10.584;2023-07-28T03:18:17;3.30;;;2.05;;
81336;SDS011;70799;48.000;10.584;2023-07-28T03:20:50;4.05;;;2.08;;
81336;SDS011;70799;48.000;10.584;2023-07-28T03:23:23;3.80;;;2.03;;
81336;SDS011;70799;48.000;10.584;2023-07-28T03:25:56;3.85;;;2.00;;
81336;SDS011;70799;48.000;10.584;2023-07-28T03:28:29;4.85;;;2.13;;
81336;SDS011;70799;48.000;10.584;2023-07-28T03:31:02;3.65;;;1.80;;
81336;SDS011;70799;48.000;10.584;2023-07-28T03:33:35;4.45;;;2.13;;
81336;SDS011;70799;48.000;10.584;2023-07-28T03:36:08;4.97;;;2.03;;
81336;SDS011;70799;48.000;10.584;2023-07-28T03:38:41;4.22;;;2.05;;
81336;SDS011;70799;48.000;10.584;2023-07-28T03:41:14;3.03;;;1.63;;
81336;SDS011;70799;48.000;10.584;2023-07-28T03:43:47;4.90;;;1.90;;
81336;SDS011;70799;48.000;10.584;2023-07-28T03:46:20;3.45;;;1.95;;
81336;SDS011;70799;48.000;10.584;2023-07-28T03:48:53;3.72;;;1.70;;
81336;SDS011;70799;48.000;10.584;2023-07-28T03:51:26;5.13;;;1.98;;
81336;SDS011;70799;48.000;10.584;2023-07-28T03:53:59;5.65;;;1.80;;
81336;SDS011;70799;48.000;10.584;2023-07-28T03:56:33;4.35;;;1.75;;
81336;SDS011;70799;48.000;10.584;2023-07-28T03:59:07;2.78;;;1.58;;
81336;SDS011;70799;48.000;10.584;2023-07-28T04:01:40;3.92;;;1.83;;
81336;SDS011;70799;48.000;10.584;2023-07-28T04:04:13;4.90;;;2.13;;
81336;SDS011;70799;48.000;10.584;2023-07-28T04:06:47;4.22;;;1.98;;
81336;SDS011;70799;48.000;10.584;2023-07-28T04:09:22;4.38;;;1.95;;
81336;SDS011;70799;48.000;10.584;2023-07-28T04:11:55;3.53;;;1.80;;
81336;SDS011;70799;48.000;10.584;2023-07-28T04:14:28;2.72;;;1.70;;
81336;SDS011;70799;48.000;10.584;2023-07-28T04:17:02;3.42;;;1.63;;
81336;SDS011;70799;48.000;10.584;2023-07-28T04:19:37;3.13;;;1.42;;
81336;SDS011;70799;48.000;10.584;2023-07-28T04:22:10;4.47;;;1.75;;
81336;SDS011;70799;48.000;10.584;2023-07-28T04:24:44;4.55;;;2.00;;
81336;SDS011;70799;48.000;10.584;2023-07-28T04:27:17;3.47;;;1.70;;
81336;SDS011;70799;48.000;10.584;2023-07-28T04:29:51;4.13;;;1.88;;
81336;SDS011;70799;48.000;10.584;2023-07-28T04:32:26;3.72;;;1.90;;
81336;SDS011;70799;48.000;10.584;2023-07-28T04:35:05;3.88;;;2.22;;
81336;SDS011;70799;48.000;10.584;2023-07-28T04:40:26;3.10;;;1.35;;
81336;SDS011;70799;48.000;10.584;2023-07-28T04:43:00;3.65;;;1.67;;
81336;SDS011;70799;48.000;10.584;2023-07-28T04:45:34;4.57;;;1.58;;
81336;SDS011;70799;48.000;10.584;2023-07-28T04:48:14;4.18;;;1.80;;
81336;SDS011;70799;48.000;10.584;2023-07-28T04:50:48;3.67;;;1.75;;
81336;SDS011;70799;48.000;10.584;2023-07-28T04:53:56;4.25;;;1.63;;
81336;SDS011;70799;48.000;10.584;2023-07-28T04:56:34;3.88;;;1.83;;
81336;SDS011;70799;48.000;10.584;2023-07-28T04:59:07;3.45;;;1.67;;
81336;SDS011;70799;48.000;10.584;2023-07-28T05:01:40;2.55;;;1.48;;
81336;SDS011;70799;48.000;10.584;2023-07-28T05:04:13;3.00;;;1.73;;
81336;SDS011;70799;48.000;10.584;2023-07-28T05:06:46;3.10;;;1.75;;
81336;SDS011;70799;48.000;10.584;2023-07-28T05:09:19;3.60;;;1.73;;
81336;SDS011;70799;48.000;10.584;2023-07-28T05:11:52;3.42;;;1.33;;
81336;SDS011;70799;48.000;10.584;2023-07-28T05:14:26;3.65;;;1.65;;
81336;SDS011;70799;48.000;10.584;2023-07-28T05:16:59;3.05;;;1.60;;
81336;SDS011;70799;48.000;10.584;2023-07-28T05:20:02;2.58;;;1.63;;
81336;SDS011;70799;48.000;10.584;2023-07-28T05:22:52;4.32;;;1.52;;
81336;SDS011;70799;48.000;10.584;2023-07-28T05:25:30;3.13;;;1.58;;
81336;SDS011;70799;48.000;10.584;2023-07-28T05:28:03;4.53;;;1.77;;
81336;SDS011;70799;48.000;10.584;2023-07-28T05:30:38;3.47;;;1.45;;
81336;SDS011;70799;48.000;10.584;2023-07-28T05:33:12;3.78;;;1.63;;
81336;SDS011;70799;48.000;10.584;2023-07-28T05:35:58;3.38;;;1.50;;
81336;SDS011;70799;48.000;10.584;2023-07-28T05:38:36;4.20;;;1.63;;
81336;SDS011;70799;48.000;10.584;2023-07-28T05:41:09;3.55;;;1.58;;
81336;SDS011;70799;48.000;10.584;2023-07-28T05:43:43;3.03;;;1.60;;
81336;SDS011;70799;48.000;10.584;2023-07-28T05:46:16;3.67;;;1.50;;
81336;SDS011;70799;48.000;10.584;2023-07-28T05:48:50;3.55;;;1.65;;
81336;SDS011;70799;48.000;10.584;2023-07-28T05:51:24;3.38;;;1.65;;
81336;SDS011;70799;48.000;10.584;2023-07-28T05:53:57;3.15;;;1.42;;
81336;SDS011;70799;48.000;10.584;2023-07-28T05:56:32;3.45;;;1.60;;
81336;SDS011;70799;48.000;10.584;2023-07-28T05:59:05;4.13;;;1.75;;
81336;SDS011;70799;48.000;10.584;2023-07-28T06:01:38;3.97;;;1.65;;
81336;SDS011;70799;48.000;10.584;2023-07-28T06:04:33;3.20;;;1.70;;
81336;SDS011;70799;48.000;10.584;2023-07-28T06:07:09;3.47;;;1.67;;
81336;SDS011;70799;48.000;10.584;2023-07-28T06:09:43;3.35;;;1.67;;
81336;SDS011;70799;48.000;10.584;2023-07-28T06:12:17;2.97;;;1.83;;
81336;SDS011;70799;48.000;10.584;2023-07-28T06:14:50;3.20;;;1.60;;
81336;SDS011;70799;48.000;10.584;2023-07-28T06:17:23;3.75;;;1.98;;
81336;SDS011;70799;48.000;10.584;2023-07-28T06:19:58;2.30;;;1.40;;
81336;SDS011;70799;48.000;10.584;2023-07-28T06:22:32;2.70;;;1.50;;
81336;SDS011;70799;48.000;10.584;2023-07-28T06:25:05;2.95;;;1.58;;
81336;SDS011;70799;48.000;10.584;2023-07-28T06:27:38;3.35;;;1.40;;
81336;SDS011;70799;48.000;10.584;2023-07-28T06:30:11;5.28;;;1.52;;
81336;SDS011;70799;48.000;10.584;2023-07-28T06:32:44;2.92;;;1.50;;
81336;SDS011;70799;48.000;10.584;2023-07-28T06:35:18;3.42;;;1.60;;
81336;SDS011;70799;48.000;10.584;2023-07-28T06:37:51;2.95;;;1.33;;
81336;SDS011;70799;48.000;10.584;2023-07-28T06:40:24;3.25;;;1.55;;
81336;SDS011;70799;48.000;10.584;2023-07-28T06:42:58;4.78;;;1.33;;
81336;SDS011;70799;48.000;10.584;2023-07-28T06:45:31;2.67;;;1.42;;
81336;SDS011;70799;48.000;10.584;2023-07-28T06:48:05;4.38;;;1.77;;
81336;SDS011;70799;48.000;10.584;2023-07-28T06:50:39;3.10;;;1.80;;
81336;SDS011;70799;48.000;10.584;2023-07-28T06:53:14;3.08;;;1.50;;
81336;SDS011;70799;48.000;10.584;2023-07-28T06:55:48;2.67;;;1.52;;
81336;SDS011;70799;48.000;10.584;2023-07-28T06:58:21;3.35;;;1.88;;
81336;SDS011;70799;48.000;10.584;2023-07-28T07:00:54;2.75;;;1.40;;
81336;SDS011;70799;48.000;10.584;2023-07-28T07:03:30;2.95;;;1.42;;
81336;SDS011;70799;48.000;10.584;2023-07-28T07:06:03;2.92;;;1.50;;
81336;SDS011;70799;48.000;10.584;2023-07-28T07:08:36;5.28;;;1.63;;
81336;SDS011;70799;48.000;10.584;2023-07-28T07:11:09;2.80;;;1.35;;
81336;SDS011;70799;48.000;10.584;2023-07-28T07:13:42;3.15;;;1.63;;
81336;SDS011;70799;48.000;10.584;2023-07-28T07:16:16;5.13;;;1.40;;
81336;SDS011;70799;48.000;10.584;2023-07-28T07:18:55;2.60;;;1.50;;
81336;SDS011;70799;48.000;10.584;2023-07-28T07:21:28;2.58;;;1.45;;
81336;SDS011;70799;48.000;10.584;2023-07-28T07:24:04;4.20;;;1.63;;
81336;SDS011;70799;48.000;10.584;2023-07-28T07:26:39;3.03;;;1.33;;
81336;SDS011;70799;48.000;10.584;2023-07-28T07:29:12;3.10;;;1.85;;
81336;SDS011;70799;48.000;10.584;2023-07-28T07:31:45;3.90;;;1.63;;
81336;SDS011;70799;48.000;10.584;2023-07-28T07:34:18;3.63;;;1.73;;
81336;SDS011;70799;48.000;10.584;2023-07-28T07:36:51;3.35;;;1.45;;
81336;SDS011;70799;48.000;10.584;2023-07-28T07:39:24;4.47;;;1.60;;
81336;SDS011;70799;48.000;10.584;2023-07-28T07:41:58;2.65;;;1.50;;
81336;SDS011;70799;48.000;10.584;2023-07-28T07:44:32;3.10;;;1.38;;
81336;SDS011;70799;48.000;10.584;2023-07-28T07:47:12;3.85;;;1.40;;
81336;SDS011;70799;48.000;10.584;2023-07-28T07:49:47;4.80;;;1.58;;
81336;SDS011;70799;48.000;10.584;2023-07-28T07:52:20;2.67;;;1.33;;
81336;SDS011;70799;48.000;10.584;2023-07-28T07:54:53;3.22;;;1.35;;
81336;SDS011;70799;48.000;10.584;2023-07-28T07:57:27;3.10;;;1.65;;
81336;SDS011;70799;48.000;10.584;2023-07-28T08:00:00;3.90;;;1.60;;
81336;SDS011;70799;48.000;10.584;2023-07-28T08:02:42;5.82;;;1.63;;
81336;SDS011;70799;48.000;10.584;2023-07-28T08:05:17;4.57;;;1.42;;
81336;SDS011;70799;48.000;10.584;2023-07-28T08:07:50;2.97;;;1.50;;
81336;SDS011;70799;48.000;10.584;2023-07-28T08:10:23;4.13;;;1.67;;
81336;SDS011;70799;48.000;10.584;2023-07-28T08:12:57;2.60;;;1.35;;
81336;SDS011;70799;48.000;10.584;2023-07-28T08:15:31;3.67;;;1.60;;
81336;SDS011;70799;48.000;10.584;2023-07-28T08:18:04;2.67;;;1.48;;
81336;SDS011;70799;48.000;10.584;2023-07-28T08:20:37;2.85;;;1.52;;
81336;SDS011;70799;48.000;10.584;2023-07-28T08:23:10;2.60;;;1.45;;
81336;SDS011;70799;48.000;10.584;2023-07-28T08:25:43;3.75;;;1.65;;
81336;SDS011;70799;48.000;10.584;2023-07-28T08:28:17;2.10;;;1.08;;
81336;SDS011;70799;48.000;10.584;2023-07-28T08:30:56;2.78;;;0.95;;
81336;SDS011;70799;48.000;10.584;2023-07-28T08:33:31;3.30;;;1.67;;
81336;SDS011;70799;48.000;10.584;2023-07-28T08:36:04;2.85;;;1.42;;
81336;SDS011;70799;48.000;10.584;2023-07-28T08:38:39;3.35;;;1.30;;
81336;SDS011;70799;48.000;10.584;2023-07-28T08:41:13;2.95;;;1.10;;
81336;SDS011;70799;48.000;10.584;2023-07-28T08:43:46;2.40;;;1.52;;
81336;SDS011;70799;48.000;10.584;2023-07-28T08:46:20;2.30;;;1.20;;
81336;SDS011;70799;48.000;10.584;2023-07-28T08:48:53;2.63;;;1.30;;
81336;SDS011;70799;48.000;10.584;2023-07-28T08:51:27;3.55;;;1.70;;
81336;SDS011;70799;48.000;10.584;2023-07-28T08:54:00;2.33;;;1.08;;
81336;SDS011;70799;48.000;10.584;2023-07-28T08:56:35;2.22;;;1.10;;
81336;SDS011;70799;48.000;10.584;2023-07-28T08:59:09;4.00;;;1.15;;
81336;SDS011;70799;48.000;10.584;2023-07-28T09:01:42;2.53;;;1.45;;
81336;SDS011;70799;48.000;10.584;2023-07-28T09:04:18;3.65;;;1.52;;
81336;SDS011;70799;48.000;10.584;2023-07-28T09:06:55;2.83;;;1.25;;
81336;SDS011;70799;48.000;10.584;2023-07-28T09:09:31;3.10;;;1.52;;
81336;SDS011;70799;48.000;10.584;2023-07-28T09:12:05;2.42;;;1.33;;
81336;SDS011;70799;48.000;10.584;2023-07-28T09:14:42;3.88;;;1.60;;
81336;SDS011;70799;48.000;10.584;2023-07-28T09:17:16;2.63;;;1.52;;
81336;SDS011;70799;48.000;10.584;2023-07-28T09:19:53;3.60;;;1.30;;
81336;SDS011;70799;48.000;10.584;2023-07-28T09:22:27;2.83;;;1.48;;
81336;SDS011;70799;48.000;10.584;2023-07-28T09:25:10;2.97;;;1.33;;
81336;SDS011;70799;48.000;10.584;2023-07-28T09:27:51;2.85;;;1.50;;
81336;SDS011;70799;48.000;10.584;2023-07-28T09:30:25;4.18;;;1.70;;
81336;SDS011;70799;48.000;10.584;2023-07-28T09:32:58;3.25;;;1.70;;
81336;SDS011;70799;48.000;10.584;2023-07-28T09:35:32;3.08;;;1.50;;
81336;SDS011;70799;48.000;10.584;2023-07-28T09:38:05;2.63;;;1.45;;
81336;SDS011;70799;48.000;10.584;2023-07-28T09:40:38;2.80;;;1.50;;
81336;SDS011;70799;48.000;10.584;2023-07-28T09:43:13;3.60;;;1.45;;
81336;SDS011;70799;48.000;10.584;2023-07-28T09:45:46;3.47;;;1.95;;
81336;SDS011;70799;48.000;10.584;2023-07-28T09:48:19;2.85;;;1.40;;
81336;SDS011;70799;48.000;10.584;2023-07-28T09:50:53;2.70;;;1.40;;
81336;SDS011;70799;48.000;10.584;2023-07-28T09:53:26;4.07;;;1.70;;
81336;SDS011;70799;48.000;10.584;2023-07-28T09:56:01;2.55;;;1.30;;
81336;SDS011;70799;48.000;10.584;2023-07-28T09:58:36;2.97;;;1.60;;
81336;SDS011;70799;48.000;10.584;2023-07-28T10:01:13;3.30;;;1.55;;
81336;SDS011;70799;48.000;10.584;2023-07-28T10:03:48;4.30;;;2.00;;
81336;SDS011;70799;48.000;10.584;2023-07-28T10:06:21;2.28;;;1.23;;
81336;SDS011;70799;48.000;10.584;2023-07-28T10:08:55;3.25;;;1.40;;
81336;SDS011;70799;48.000;10.584;2023-07-28T10:11:28;3.50;;;1.98;;
81336;SDS011;70799;48.000;10.584;2023-07-28T10:14:03;4.63;;;1.90;;
81336;SDS011;70799;48.000;10.584;2023-07-28T10:16:39;3.20;;;1.67;;
81336;SDS011;70799;48.000;10.584;2023-07-28T10:19:12;4.47;;;2.00;;
81336;SDS011;70799;48.000;10.584;2023-07-28T10:22:00;3.28;;;1.60;;
81336;SDS011;70799;48.000;10.584;2023-07-28T10:24:50;2.90;;;1.58;;
81336;SDS011;70799;48.000;10.584;2023-07-28T10:27:30;2.90;;;1.83;;
81336;SDS011;70799;48.000;10.584;2023-07-28T10:30:11;2.50;;;1.45;;
81336;SDS011;70799;48.000;10.584;2023-07-28T10:32:48;3.10;;;1.80;;
81336;SDS011;70799;48.000;10.584;2023-07-28T10:35:23;3.10;;;1.75;;
81336;SDS011;70799;48.000;10.584;2023-07-28T10:37:58;3.63;;;1.80;;
81336;SDS011;70799;48.000;10.584;2023-07-28T10:40:51;4.28;;;2.15;;
81336;SDS011;70799;48.000;10.584;2023-07-28T10:43:24;4.00;;;1.98;;
81336;SDS011;70799;48.000;10.584;2023-07-28T10:45:58;4.43;;;2.30;;
81336;SDS011;70799;48.000;10.584;2023-07-28T10:48:33;3.50;;;1.83;;
81336;SDS011;70799;48.000;10.584;2023-07-28T10:51:07;2.58;;;1.73;;
81336;SDS011;70799;48.000;10.584;2023-07-28T10:53:40;3.47;;;1.80;;
81336;SDS011;70799;48.000;10.584;2023-07-28T10:56:13;3.25;;;2.35;;
81336;SDS011;70799;48.000;10.584;2023-07-28T10:58:47;3.10;;;2.17;;
81336;SDS011;70799;48.000;10.584;2023-07-28T11:01:38;3.33;;;2.45;;
81336;SDS011;70799;48.000;10.584;2023-07-28T11:04:15;4.93;;;1.98;;
81336;SDS011;70799;48.000;10.584;2023-07-28T11:06:49;4.90;;;2.20;;
81336;SDS011;70799;48.000;10.584;2023-07-28T11:09:23;4.38;;;2.40;;
81336;SDS011;70799;48.000;10.584;2023-07-28T11:11:57;3.75;;;2.25;;
81336;SDS011;70799;48.000;10.584;2023-07-28T11:14:32;3.30;;;2.00;;
81336;SDS011;70799;48.000;10.584;2023-07-28T11:17:06;4.88;;;2.45;;
81336;SDS011;70799;48.000;10.584;2023-07-28T11:19:39;3.92;;;2.20;;
81336;SDS011;70799;48.000;10.584;2023-07-28T11:22:16;3.45;;;2.10;;
81336;SDS011;70799;48.000;10.584;2023-07-28T11:24:50;5.45;;;2.67;;
81336;SDS011;70799;48.000;10.584;2023-07-28T11:27:24;4.28;;;2.03;;
81336;SDS011;70799;48.000;10.584;2023-07-28T11:29:57;3.50;;;2.05;;
81336;SDS011;70799;48.000;10.584;2023-07-28T11:32:34;3.00;;;2.00;;
81336;SDS011;70799;48.000;10.584;2023-07-28T11:35:10;4.78;;;2.20;;
81336;SDS011;70799;48.000;10.584;2023-07-28T11:37:46;4.30;;;2.13;;
81336;SDS011;70799;48.000;10.584;2023-07-28T11:40:29;4.65;;;2.30;;
81336;SDS011;70799;48.000;10.584;2023-07-28T11:43:03;4.10;;;1.88;;
81336;SDS011;70799;48.000;10.584;2023-07-28T11:45:40;4.60;;;2.20;;
81336;SDS011;70799;48.000;10.584;2023-07-28T11:48:13;4.35;;;2.10;;
81336;SDS011;70799;48.000;10.584;2023-07-28T11:50:47;4.75;;;2.22;;
81336;SDS011;70799;48.000;10.584;2023-07-28T11:53:25;3.53;;;1.88;;
81336;SDS011;70799;48.000;10.584;2023-07-28T11:56:01;3.80;;;2.10;;
81336;SDS011;70799;48.000;10.584;2023-07-28T11:58:34;4.32;;;2.38;;
81336;SDS011;70799;48.000;10.584;2023-07-28T12:01:07;4.50;;;2.22;;
81336;SDS011;70799;48.000;10.584;2023-07-28T12:03:41;3.05;;;1.80;;
81336;SDS011;70799;48.000;10.584;2023-07-28T12:06:15;3.67;;;1.95;;
81336;SDS011;70799;48.000;10.584;2023-07-28T12:09:09;4.82;;;2.50;;
81336;SDS011;70799;48.000;10.584;2023-07-28T12:11:43;3.50;;;1.92;;
81336;SDS011;70799;48.000;10.584;2023-07-28T12:14:32;5.28;;;2.50;;
81336;SDS011;70799;48.000;10.584;2023-07-28T12:17:13;5.25;;;2.63;;
81336;SDS011;70799;48.000;10.584;2023-07-28T12:20:06;4.50;;;2.45;;
81336;SDS011;70799;48.000;10.584;2023-07-28T12:22:44;4.47;;;2.38;;
81336;SDS011;70799;48.000;10.584;2023-07-28T12:25:19;4.63;;;2.03;;
81336;SDS011;70799;48.000;10.584;2023-07-28T12:27:52;5.63;;;2.20;;
81336;SDS011;70799;48.000;10.584;2023-07-28T12:30:26;3.72;;;2.75;;
81336;SDS011;70799;48.000;10.584;2023-07-28T12:32:59;4.00;;;2.20;;
81336;SDS011;70799;48.000;10.584;2023-07-28T12:35:34;3.85;;;2.17;;
81336;SDS011;70799;48.000;10.584;2023-07-28T12:38:10;4.38;;;2.58;;
81336;SDS011;70799;48.000;10.584;2023-07-28T12:40:46;5.88;;;2.63;;
81336;SDS011;70799;48.000;10.584;2023-07-28T12:43:22;4.38;;;2.63;;
81336;SDS011;70799;48.000;10.584;2023-07-28T12:46:09;4.10;;;2.28;;
81336;SDS011;70799;48.000;10.584;2023-07-28T12:49:04;4.13;;;2.53;;
81336;SDS011;70799;48.000;10.584;2023-07-28T12:54:28;3.90;;;2.33;;
81336;SDS011;70799;48.000;10.584;2023-07-28T12:57:02;3.53;;;2.08;;
81336;SDS011;70799;48.000;10.584;2023-07-28T12:59:38;3.40;;;2.10;;
81336;SDS011;70799;48.000;10.584;2023-07-28T13:02:14;3.28;;;1.88;;
81336;SDS011;70799;48.000;10.584;2023-07-28T13:04:47;3.55;;;2.13;;
81336;SDS011;70799;48.000;10.584;2023-07-28T13:07:20;4.00;;;2.58;;
81336;SDS011;70799;48.000;10.584;2023-07-28T13:09:57;4.13;;;2.15;;
81336;SDS011;70799;48.000;10.584;2023-07-28T13:12:31;6.15;;;2.63;;
81336;SDS011;70799;48.000;10.584;2023-07-28T13:15:07;4.32;;;2.22;;
81336;SDS011;70799;48.000;10.584;2023-07-28T13:17:40;4.07;;;2.72;;
81336;SDS011;70799;48.000;10.584;2023-07-28T13:20:13;4.00;;;2.33;;
81336;SDS011;70799;48.000;10.584;2023-07-28T13:22:46;5.07;;;2.75;;
81336;SDS011;70799;48.000;10.584;2023-07-28T13:25:19;3.80;;;2.20;;
81336;SDS011;70799;48.000;10.584;2023-07-28T13:27:53;4.45;;;2.35;;
81336;SDS011;70799;48.000;10.584;2023-07-28T13:30:26;5.55;;;2.38;;
81336;SDS011;70799;48.000;10.584;2023-07-28T13:33:02;3.72;;;2.55;;
81336;SDS011;70799;48.000;10.584;2023-07-28T13:35:37;3.92;;;2.58;;
81336;SDS011;70799;48.000;10.584;2023-07-28T13:38:10;4.28;;;2.83;;
81336;SDS011;70799;48.000;10.584;2023-07-28T13:40:44;3.60;;;2.28;;
81336;SDS011;70799;48.000;10.584;2023-07-28T13:43:17;3.50;;;2.03;;
81336;SDS011;70799;48.000;10.584;2023-07-28T13:45:50;4.78;;;2.45;;
81336;SDS011;70799;48.000;10.584;2023-07-28T13:48:23;4.85;;;2.13;;
81336;SDS011;70799;48.000;10.584;2023-07-28T13:50:57;4.13;;;2.20;;
81336;SDS011;70799;48.000;10.584;2023-07-28T13:53:30;5.30;;;2.42;;
81336;SDS011;70799;48.000;10.584;2023-07-28T13:56:06;4.90;;;2.28;;
81336;SDS011;70799;48.000;10.584;2023-07-28T13:58:52;4.07;;;2.45;;
81336;SDS011;70799;48.000;10.584;2023-07-28T14:01:25;4.95;;;2.63;;
81336;SDS011;70799;48.000;10.584;2023-07-28T14:03:58;4.05;;;2.05;;
81336;SDS011;70799;48.000;10.584;2023-07-28T14:06:31;4.00;;;2.15;;
81336;SDS011;70799;48.000;10.584;2023-07-28T14:09:05;3.55;;;2.50;;
81336;SDS011;70799;48.000;10.584;2023-07-28T14:11:38;5.07;;;2.50;;
81336;SDS011;70799;48.000;10.584;2023-07-28T14:14:11;4.75;;;2.33;;
81336;SDS011;70799;48.000;10.584;2023-07-28T14:16:45;4.75;;;1.98;;
81336;SDS011;70799;48.000;10.584;2023-07-28T14:19:19;4.47;;;2.33;;
81336;SDS011;70799;48.000;10.584;2023-07-28T14:21:52;5.05;;;2.58;;
81336;SDS011;70799;48.000;10.584;2023-07-28T14:24:25;4.43;;;2.38;;
81336;SDS011;70799;48.000;10.584;2023-07-28T14:26:58;4.22;;;2.72;;
81336;SDS011;70799;48.000;10.584;2023-07-28T14:29:31;3.88;;;2.20;;
81336;SDS011;70799;48.000;10.584;2023-07-28T14:32:04;5.22;;;2.53;;
81336;SDS011;70799;48.000;10.584;2023-07-28T14:34:39;5.05;;;2.20;;
81336;SDS011;70799;48.000;10.584;2023-07-28T14:37:12;4.55;;;2.67;;
81336;SDS011;70799;48.000;10.584;2023-07-28T14:39:46;3.85;;;2.35;;
81336;SDS011;70799;48.000;10.584;2023-07-28T14:42:19;4.85;;;2.83;;
81336;SDS011;70799;48.000;10.584;2023-07-28T14:44:52;3.92;;;2.47;;
81336;SDS011;70799;48.000;10.584;2023-07-28T14:47:25;3.92;;;2.25;;
81336;SDS011;70799;48.000;10.584;2023-07-28T14:49:59;4.35;;;2.35;;
81336;SDS011;70799;48.000;10.584;2023-07-28T14:52:33;3.80;;;2.53;;
81336;SDS011;70799;48.000;10.584;2023-07-28T14:55:06;4.35;;;2.58;;
81336;SDS011;70799;48.000;10.584;2023-07-28T14:57:40;5.00;;;2.47;;
81336;SDS011;70799;48.000;10.584;2023-07-28T15:00:13;4.30;;;2.78;;
81336;SDS011;70799;48.000;10.584;2023-07-28T15:02:46;4.22;;;2.50;;
81336;SDS011;70799;48.000;10.584;2023-07-28T15:05:19;4.22;;;2.53;;
81336;SDS011;70799;48.000;10.584;2023-07-28T15:07:52;3.45;;;2.13;;
81336;SDS011;70799;48.000;10.584;2023-07-28T15:10:25;4.22;;;2.10;;
81336;SDS011;70799;48.000;10.584;2023-07-28T15:12:58;5.55;;;2.75;;
81336;SDS011;70799;48.000;10.584;2023-07-28T15:15:32;4.22;;;2.40;;
81336;SDS011;70799;48.000;10.584;2023-07-28T15:18:05;4.32;;;2.70;;
81336;SDS011;70799;48.000;10.584;2023-07-28T15:20:39;3.72;;;2.63;;
81336;SDS011;70799;48.000;10.584;2023-07-28T15:23:12;3.88;;;2.47;;
81336;SDS011;70799;48.000;10.584;2023-07-28T15:25:46;3.70;;;2.20;;
81336;SDS011;70799;48.000;10.584;2023-07-28T15:28:19;3.85;;;2.40;;
81336;SDS011;70799;48.000;10.584;2023-07-28T15:30:52;4.13;;;2.45;;